Whidbey Island Naval Air Station /Ault Field/ Airport
KNUW : rendu visible

Aérodrome :











RETROUVEZ-NOUS SUR...

 
LOGIN :

S'inscrire | Disclaimer

   EN    FR    IT 

 









Légende :    VFR   VFR Marginal   IFR   IFR Intensif   IFR Très Intensif
Visi : 
Plafond : 
>= 8 km
>= 3000ft
5 à 8 km
1000 à 3000 ft
1500m à 5 km
500 à 1000 ft
800 à 1500m
200 à 500 ft
< 800m
< 200 ft
Symboles :   Orages  Brouillard  Fortes neiges  Fortes précipitations  Vent > 20 kt






- Altitude de l'aérodrome : 47 ft


KNUW - Whidbey Island Naval Air Station /Ault Field/

DERNIER METAR :
  • 072356Z 34003KT 10SM SCT035 BKN050 BKN100 OVC250 19/10 A3020 RMK AO2 SLP225 T01940100 10228 20161 56008

METARs EXPIRÉS :
  • 072256Z 34005KT 10SM SCT035 BKN050 BKN100 OVC250 18/11 A3020 RMK AO2 SLP227 T01830111
  • 072156Z 30006KT 10SM SCT035 BKN050 BKN100 OVC250 22/11 A3021 RMK AO2 SLP229 T02170111

TAF TAF KNUW
Valide du 07 à 23h jusqu'au 08 à 23h UTC


0723/0823 29006KT 9999 VCSH BKN035 BKN050 BKN100 OVC160 641009 QNH3018INS
FM080400 VRB06KT 9999 VCSH BKN025 BKN050 OVC100 641009 QNH3015INS
TEMPO 0806/0812 8000 -SHRA BR SCT006 BKN010 OVC020
FM081200 26010G16KT 9999 SCT020 BKN035 BKN050 BKN140 600000 QNH3017INS
TEMPO 0814/0820 VRB06KT 8000 BR SCT003 BKN010 T21/0723Z T12/0813Z FS30028
FIR KZSE / Amérique du Nord



MET'MAP, la Météo Aéronautique d'un coup d'oeil ! - Copyright ORBIFLY Décembre 2007 - Disclaimer

ORBIFLY MET'MAP TEAM :

Programmation & Développement : Alexandra Zaïnal
Sur une idée originale de : Baudouin d'Aumeries
Assistance à la programmation : Marc-Olivier Méhu
Soutien technique & logistique : Manuel Goepfert

Contact : metmap@orbifly.com




SOURCES & CREDITS :

   NOAA       Earth
Advisory